Mount Princeton, Colorado
Current Conditions -  °F | °C
As of 6:14 PM on Monday 20 Oct 2014 (Local Time) from K7BM Reporting Station
Clear Clear  
Wind Chill: 54°   Ceiling: Unl
Heat Index: 54°   Visibility: 10mi
Dew Point: 27°   Wind: 3mph
Humidity: 35%   Direction: 300°WNW
Pressure: 30.33"   Gusts: NA
Location:  38.7194°N, 106.276°W
Report Text: K7BM 210014Z AUTO 30003KT 10SM CLR 12/M03 A3033 RMK AO2
Loading
Personal Weather Stations






























Interactive Weather Map
Tropical Storm Tracking
New forecast layout! Learn more

10-Day Weather Forecast

Advertisements
Track Severe Weather on mobile